Time;durP1;ratioP1;P1;durP2;ratioP2;P2;SDS_P1;SDS_P2;PMS_P1;PMS_P2;Temp;Humidity;BMP_temperature;BMP_pressure;BME280_temperature;BME280_humidity;BME280_pressure;Samples;Min_cycle;Max_cycle;Signal;HPM_P1;HPM_P2
2021/04/06 00:02:18;;;;;;;19.58;3.08;;;3.50;82.70;;;;;;5051083;28;20021;-81
2021/04/06 00:04:48;;;;;;;16.55;2.75;;;3.60;88.40;;;;;;5051496;28;20182;-81
2021/04/06 00:07:16;;;;;;;;;;;3.60;84.60;;;;;;5051481;28;20410;-82
2021/04/06 00:09:45;;;;;;;25.10;3.40;;;3.60;83.80;;;;;;5084611;28;19945;-81
2021/04/06 00:12:14;;;;;;;14.27;2.65;;;3.60;84.30;;;;;;5051136;28;20013;-81
2021/04/06 00:14:40;;;;;;;23.10;2.90;;;3.60;86.80;;;;;;5051161;28;20033;-80
2021/04/06 00:17:08;;;;;;;16.55;3.40;;;3.50;86.60;;;;;;5052168;28;20438;-80
2021/04/06 00:19:37;;;;;;;14.98;2.67;;;3.40;87.10;;;;;;5051037;28;20025;-80
2021/04/06 00:22:05;;;;;;;15.48;3.30;;;3.30;88.30;;;;;;5050669;28;20024;-80
2021/04/06 00:24:35;;;;;;;14.25;3.13;;;3.20;90.00;;;;;;5050944;28;20025;-80
2021/04/06 00:27:14;;;;;;;9.60;1.70;;;3.10;87.20;;;;;;5050651;28;20079;-81
2021/04/06 00:29:43;;;;;;;13.57;2.60;;;3.00;87.70;;;;;;5051997;28;20327;-79
2021/04/06 00:32:10;;;;;;;16.52;2.97;;;3.00;89.00;;;;;;5050775;28;20063;-80
2021/04/06 00:34:37;;;;;;;12.98;2.72;;;3.00;89.80;;;;;;5051883;28;20021;-80
2021/04/06 00:37:14;;;;;;;16.33;3.50;;;2.90;90.00;;;;;;5050361;28;20041;-79
2021/04/06 00:39:41;;;;;;;12.15;2.78;;;2.90;90.20;;;;;;5050646;28;20013;-80
2021/04/06 00:42:11;;;;;;;23.55;3.92;;;2.90;90.40;;;;;;5052204;28;20027;-80
2021/04/06 00:44:46;;;;;;;20.92;4.43;;;2.90;90.60;;;;;;5050752;28;20433;-80
2021/04/06 00:47:13;;;;;;;16.30;4.32;;;3.00;90.60;;;;;;5050667;28;20025;-80
2021/04/06 00:49:41;;;;;;;16.45;4.38;;;3.00;90.60;;;;;;5050432;28;20025;-81
2021/04/06 00:52:07;;;;;;;18.25;3.90;;;3.00;90.90;;;;;;5050705;28;20024;-82
2021/04/06 00:54:36;;;;;;;29.15;5.65;;;3.00;90.60;;;;;;5051068;28;20043;-82
2021/04/06 00:57:06;;;;;;;17.98;4.15;;;3.00;90.60;;;;;;5050763;28;20032;-83
2021/04/06 00:59:33;;;;;;;22.90;4.93;;;3.00;90.70;;;;;;5050405;28;20221;-83
2021/04/06 01:02:05;;;;;;;20.90;3.10;;;3.00;90.80;;;;;;5067632;28;20074;-83
2021/04/06 01:04:38;;;;;;;22.90;3.95;;;3.00;90.70;;;;;;5051211;28;20017;-83
2021/04/06 01:07:13;;;;;;;19.83;3.25;;;3.00;90.50;;;;;;5050651;28;20068;-82
2021/04/06 01:09:52;;;;;;;18.08;3.28;;;3.10;90.40;;;;;;5055215;28;20017;-81
2021/04/06 01:12:23;;;;;;;22.30;4.23;;;3.10;90.40;;;;;;5059716;28;20032;-81
2021/04/06 01:14:50;;;;;;;14.45;3.35;;;3.10;90.40;;;;;;5056454;28;20271;-82
2021/04/06 01:17:24;;;;;;;20.67;3.75;;;3.10;90.50;;;;;;5057269;28;20067;-81
2021/04/06 01:19:50;;;;;;;22.55;3.55;;;3.00;90.40;;;;;;5063405;28;20021;-80
2021/04/06 01:22:17;;;;;;;29.60;3.97;;;3.00;90.40;;;;;;5060140;28;20024;-81
2021/04/06 01:24:44;;;;;;;26.67;4.85;;;3.00;90.50;;;;;;5058548;28;20025;-81
2021/04/06 01:27:15;;;;;;;13.05;2.85;;;3.00;90.60;;;;;;5055674;28;20021;-81
2021/04/06 01:29:47;;;;;;;22.83;4.63;;;2.90;90.60;;;;;;5054030;28;20025;-81
2021/04/06 01:32:13;;;;;;;18.83;3.25;;;2.90;90.60;;;;;;5053866;28;20021;-81
2021/04/06 01:34:40;;;;;;;25.90;4.97;;;2.90;90.90;;;;;;5053961;28;20055;-81
2021/04/06 01:37:06;;;;;;;25.88;4.38;;;2.90;90.70;;;;;;5053648;28;20021;-80
2021/04/06 01:39:33;;;;;;;21.80;3.60;;;2.90;90.70;;;;;;5053851;28;20024;-81
2021/04/06 01:42:02;;;;;;;25.33;5.07;;;2.90;90.60;;;;;;5053590;28;20017;-81
2021/04/06 01:44:30;;;;;;;19.60;4.20;;;2.80;90.30;;;;;;5053695;28;20024;-80
2021/04/06 01:46:56;;;;;;;23.10;3.90;;;2.80;90.20;;;;;;5053418;28;20013;-81
2021/04/06 01:49:24;;;;;;;22.30;4.07;;;2.80;90.50;;;;;;5053446;28;20017;-81
2021/04/06 01:51:55;;;;;;;19.90;3.50;;;2.80;90.60;;;;;;5053791;28;20070;-81
2021/04/06 01:54:20;;;;;;;24.38;4.07;;;2.80;90.70;;;;;;5054964;28;20441;-80
2021/04/06 01:56:56;;;;;;;32.53;5.45;;;2.80;90.60;;;;;;5053180;28;20028;-80
2021/04/06 01:59:26;;;;;;;22.50;4.03;;;2.90;90.60;;;;;;5053438;28;20021;-81
2021/04/06 02:01:53;;;;;;;33.05;4.47;;;2.90;90.50;;;;;;5054017;28;20024;-81
2021/04/06 02:04:20;;;;;;;23.75;4.40;;;2.90;90.50;;;;;;5054167;28;20090;-81
2021/04/06 02:06:46;;;;;;;20.00;3.65;;;2.90;90.40;;;;;;5053030;28;20457;-81
2021/04/06 02:09:12;;;;;;;22.00;4.50;;;2.90;90.20;;;;;;5054844;28;20128;-81
2021/04/06 02:11:39;;;;;;;21.85;3.95;;;2.90;90.00;;;;;;5053280;28;20440;-81
2021/04/06 02:14:10;;;;;;;23.83;3.65;;;2.90;89.90;;;;;;5053117;28;20020;-82
2021/04/06 02:16:47;;;;;;;27.45;4.43;;;2.90;89.80;;;;;;5053093;28;20040;-81
2021/04/06 02:19:39;;;;;;;25.27;5.75;;;2.90;89.70;;;;;;5053981;28;20025;-81
2021/04/06 02:22:10;;;;;;;22.85;4.47;;;2.90;89.60;;;;;;5052763;28;20051;-80
2021/04/06 02:24:45;;;;;;;30.30;4.53;;;2.80;89.80;;;;;;5052958;28;20108;-81
2021/04/06 02:27:21;;;;;;;33.83;4.82;;;2.80;90.00;;;;;;5052589;28;20017;-80
2021/04/06 02:29:50;;;;;;;22.30;5.05;;;2.80;89.60;;;;;;5052704;28;20025;-81
2021/04/06 02:32:21;;;;;;;28.35;4.00;;;2.80;89.90;;;;;;5054137;28;20021;-81
2021/04/06 02:34:48;;;;;;;24.83;4.38;;;2.80;89.60;;;;;;5053794;28;20035;-80
2021/04/06 02:37:17;;;;;;;30.60;4.05;;;2.70;89.60;;;;;;5052663;28;20100;-81
2021/04/06 02:39:43;;;;;;;29.60;4.72;;;2.70;89.50;;;;;;5052675;28;20021;-80
2021/04/06 02:42:34;;;;;;;21.98;4.45;;;2.70;89.90;;;;;;5052140;28;20021;-81
2021/04/06 02:45:09;;;;;;;20.10;3.47;;;2.70;89.40;;;;;;5052406;28;20021;-81
2021/04/06 02:47:38;;;;;;;15.48;3.63;;;2.60;89.10;;;;;;5052467;28;20024;-80
2021/04/06 02:50:06;;;;;;;19.88;3.03;;;2.60;88.70;;;;;;5052187;28;20117;-81
2021/04/06 02:52:32;;;;;;;22.75;4.15;;;2.60;88.60;;;;;;5052317;28;20043;-81
2021/04/06 02:54:58;;;;;;;22.00;4.63;;;2.60;88.40;;;;;;5052176;28;20017;-82
2021/04/06 02:57:26;;;;;;;27.55;5.97;;;2.60;88.70;;;;;;5052270;28;20035;-81
2021/04/06 02:59:52;;;;;;;20.40;3.58;;;2.60;88.50;;;;;;5052091;28;20079;-81
2021/04/06 03:02:19;;;;;;;15.80;3.28;;;2.60;88.80;;;;;;5052288;28;20021;-81
2021/04/06 03:04:46;;;;;;;17.00;3.95;;;2.70;88.30;;;;;;5053413;28;20074;-80
2021/04/06 03:07:19;;;;;;;14.27;2.67;;;2.70;87.60;;;;;;5053215;28;20521;-81
2021/04/06 03:09:59;;;;;;;22.55;3.33;;;2.70;87.40;;;;;;5052138;28;20079;-81
2021/04/06 03:12:30;;;;;;;12.27;2.67;;;2.70;86.90;;;;;;5052240;28;20132;-81
2021/04/06 03:14:57;;;;;;;17.17;4.22;;;2.70;85.40;;;;;;5052105;28;20021;-83
2021/04/06 03:17:23;;;;;;;13.00;2.85;;;2.70;86.20;;;;;;5051784;28;20032;-80
2021/04/06 03:19:55;;;;;;;15.23;1.80;;;2.80;85.80;;;;;;5052159;28;20021;-80
2021/04/06 03:22:21;;;;;;;18.25;3.75;;;2.80;86.30;;;;;;5052209;28;20017;-79
2021/04/06 03:24:48;;;;;;;13.82;2.55;;;2.80;86.80;;;;;;5052387;28;20407;-79
2021/04/06 03:27:14;;;;;;;12.25;3.08;;;2.80;87.10;;;;;;5051478;28;20464;-80
2021/04/06 03:29:39;;;;;;;15.23;3.25;;;2.80;88.10;;;;;;5053319;28;20108;-79
2021/04/06 03:32:06;;;;;;;14.88;2.53;;;2.80;88.20;;;;;;5050509;28;20361;-78
2021/04/06 03:34:39;;;;;;;10.38;2.30;;;2.70;87.60;;;;;;5051620;28;20021;-80
2021/04/06 03:37:07;;;;;;;13.07;2.42;;;2.60;87.50;;;;;;5051136;28;20063;-79
2021/04/06 03:39:34;;;;;;;10.13;1.88;;;2.60;88.80;;;;;;5051583;28;20031;-79
2021/04/06 03:42:00;;;;;;;11.07;2.65;;;2.50;88.20;;;;;;5051242;28;20382;-80
2021/04/06 03:44:31;;;;;;;13.48;2.25;;;2.50;87.90;;;;;;5051634;28;20480;-79
2021/04/06 03:47:02;;;;;;;16.42;2.38;;;2.40;87.50;;;;;;5059429;28;20020;-80
2021/04/06 03:49:30;;;;;;;17.20;3.35;;;2.30;88.00;;;;;;5072971;28;20032;-79
2021/04/06 03:51:58;;;;;;;9.18;2.13;;;2.30;88.40;;;;;;5071284;28;20094;-82
2021/04/06 03:54:39;;;;;;;14.45;2.03;;;2.20;88.70;;;;;;5072376;28;20016;-81
2021/04/06 03:57:31;;;;;;;10.77;2.38;;;2.20;89.00;;;;;;5071168;28;20024;-80
2021/04/06 03:59:57;;;;;;;15.45;2.47;;;2.20;89.20;;;;;;5071014;28;20068;-81
2021/04/06 04:02:24;;;;;;;9.82;2.10;;;2.20;89.40;;;;;;5071252;28;20475;-80
2021/04/06 04:04:53;;;;;;;11.13;2.45;;;2.20;89.80;;;;;;5069812;28;20099;-80
2021/04/06 04:07:19;;;;;;;18.45;2.55;;;2.20;89.70;;;;;;5071014;28;20040;-81
2021/04/06 04:09:45;;;;;;;12.38;3.10;;;2.10;89.70;;;;;;5071323;28;20027;-81
2021/04/06 04:12:11;;;;;;;14.27;2.22;;;2.20;90.40;;;;;;5072537;28;20020;-81
2021/04/06 04:14:36;;;;;;;18.88;4.40;;;2.20;90.40;;;;;;5071344;28;20020;-80
2021/04/06 04:17:02;;;;;;;13.82;3.10;;;2.20;90.50;;;;;;5072085;28;20095;-81
2021/04/06 04:19:28;;;;;;;8.95;2.38;;;2.20;90.60;;;;;;5071138;28;20029;-81
2021/04/06 04:21:54;;;;;;;26.13;3.88;;;2.10;90.70;;;;;;5071153;28;20066;-82
2021/04/06 04:24:20;;;;;;;17.63;2.70;;;2.10;90.90;;;;;;5071258;28;20024;-82
2021/04/06 04:26:45;;;;;;;12.45;1.90;;;2.10;90.90;;;;;;5061445;28;20392;-81
2021/04/06 04:29:11;;;;;;;11.02;2.63;;;2.10;90.70;;;;;;5050974;28;20021;-81
2021/04/06 04:31:36;;;;;;;11.73;2.35;;;2.10;90.60;;;;;;5051132;28;20028;-81
2021/04/06 04:34:02;;;;;;;15.73;2.38;;;2.10;90.60;;;;;;5050817;28;20468;-80
2021/04/06 04:36:27;;;;;;;12.45;2.30;;;2.10;90.40;;;;;;5050986;28;20465;-81
2021/04/06 04:38:53;;;;;;;19.27;2.85;;;2.10;90.40;;;;;;5050843;28;20462;-80
2021/04/06 04:41:19;;;;;;;11.48;2.97;;;2.10;90.50;;;;;;5050867;28;20357;-81
2021/04/06 04:43:44;;;;;;;9.73;1.80;;;2.10;90.60;;;;;;5054435;28;20017;-82
2021/04/06 04:46:10;;;;;;;11.38;2.42;;;2.10;90.90;;;;;;5055817;28;20033;-81
2021/04/06 04:48:35;;;;;;;11.32;2.28;;;2.10;90.90;;;;;;5055646;28;20453;-79
2021/04/06 04:51:01;;;;;;;13.90;2.03;;;2.20;90.90;;;;;;5054847;28;20017;-81
2021/04/06 04:53:27;;;;;;;10.68;2.15;;;2.20;90.60;;;;;;5054902;28;20044;-80
2021/04/06 04:55:53;;;;;;;16.90;2.55;;;2.20;90.40;;;;;;5054874;28;20026;-81
2021/04/06 04:58:18;;;;;;;18.00;3.65;;;2.30;90.30;;;;;;5054366;28;20033;-81
2021/04/06 05:00:44;;;;;;;18.75;3.20;;;2.30;90.10;;;;;;5054703;28;20110;-80
2021/04/06 05:03:09;;;;;;;17.20;3.20;;;2.30;89.90;;;;;;5054323;28;20568;-82
2021/04/06 05:05:35;;;;;;;14.90;2.92;;;2.30;89.90;;;;;;5054485;28;20380;-80
2021/04/06 05:08:01;;;;;;;17.75;2.83;;;2.40;90.00;;;;;;5053982;28;20045;-79
2021/04/06 05:10:26;;;;;;;16.17;2.92;;;2.40;89.90;;;;;;5054391;28;20017;-79
2021/04/06 05:12:52;;;;;;;12.07;3.30;;;2.40;89.90;;;;;;5054071;28;20025;-79
2021/04/06 05:15:18;;;;;;;11.85;1.95;;;2.40;90.10;;;;;;5054649;28;20120;-78
2021/04/06 05:17:44;;;;;;;16.77;3.33;;;2.30;89.90;;;;;;5054237;28;20104;-78
2021/04/06 05:20:10;;;;;;;14.60;2.80;;;2.30;89.90;;;;;;5054304;28;20107;-79
2021/04/06 05:22:36;;;;;;;15.90;2.55;;;2.30;90.00;;;;;;5056053;28;20471;-79
2021/04/06 05:25:03;;;;;;;17.63;3.60;;;2.30;90.00;;;;;;5054970;28;20063;-79
2021/04/06 05:27:29;;;;;;;18.38;3.30;;;2.30;89.90;;;;;;5068504;28;20078;-79
2021/04/06 05:29:55;;;;;;;12.95;2.92;;;2.30;90.00;;;;;;5073934;28;20020;-79
2021/04/06 05:32:21;;;;;;;22.65;3.25;;;2.30;90.00;;;;;;5073683;28;20016;-79
2021/04/06 05:34:46;;;;;;;11.95;2.17;;;2.30;90.10;;;;;;5073912;28;20039;-79
2021/04/06 05:37:12;;;;;;;14.50;3.25;;;2.20;89.70;;;;;;5073564;28;20453;-79
2021/04/06 05:39:37;;;;;;;11.10;2.97;;;2.20;89.60;;;;;;5073621;28;20022;-79
2021/04/06 05:42:04;;;;;;;11.27;2.70;;;2.20;89.70;;;;;;5073461;28;20364;-79
2021/04/06 05:44:30;;;;;;;17.58;3.08;;;2.20;90.00;;;;;;5073581;28;20522;-79
2021/04/06 05:47:00;;;;;;;19.42;3.00;;;2.20;90.40;;;;;;5073670;28;20112;-79
2021/04/06 05:49:29;;;;;;;13.82;2.92;;;2.20;90.00;;;;;;5074148;28;20030;-78
2021/04/06 05:51:55;;;;;;;11.77;3.17;;;2.30;90.10;;;;;;5073494;28;20023;-78
2021/04/06 05:54:23;;;;;;;58.50;18.02;;;2.30;89.30;;;;;;5072367;28;20017;-78
2021/04/06 05:56:48;;;;;;;27.08;8.93;;;2.40;89.30;;;;;;5067207;28;20055;-79
2021/04/06 05:59:14;;;;;;;18.63;6.80;;;2.40;89.50;;;;;;5061112;28;20408;-78
2021/04/06 06:01:42;;;;;;;27.35;7.15;;;2.50;90.00;;;;;;5062936;28;20018;-78
2021/04/06 06:04:12;;;;;;;22.23;5.72;;;2.50;88.40;;;;;;5061107;28;20016;-79
2021/04/06 06:06:38;;;;;;;19.80;4.38;;;2.60;88.00;;;;;;5063934;28;20041;-76
2021/04/06 06:09:06;;;;;;;19.88;4.72;;;2.70;87.90;;;;;;5060570;28;20035;-78
2021/04/06 06:11:53;;;;;;;17.67;3.85;;;2.80;90.20;;;;;;5063369;28;20487;-79
2021/04/06 06:14:42;;;;;;;12.50;3.20;;;3.00;87.50;;;;;;5062317;28;20041;-78
2021/04/06 06:17:27;;;;;;;14.30;3.25;;;3.10;86.30;;;;;;5063447;28;20025;-77
2021/04/06 06:19:57;;;;;;;15.27;4.07;;;3.30;86.00;;;;;;5072991;28;20146;-77
2021/04/06 06:22:31;;;;;;;17.65;2.95;;;3.30;85.20;;;;;;5072417;28;20020;-77
2021/04/06 06:25:12;;;;;;;12.75;2.63;;;3.40;85.30;;;;;;5072827;28;20016;-78
2021/04/06 06:27:42;;;;;;;15.13;2.72;;;3.50;84.20;;;;;;5057277;28;20051;-76
2021/04/06 06:30:23;;;;;;;15.80;2.78;;;3.60;84.60;;;;;;5053680;28;20364;-77
2021/04/06 06:33:09;;;;;;;12.13;2.88;;;3.70;83.50;;;;;;5052658;28;20082;-77
2021/04/06 06:35:35;;;;;;;14.95;2.45;;;3.70;82.90;;;;;;5060277;28;20064;-76
2021/04/06 06:38:34;;;;;;;11.43;2.67;;;3.80;83.10;;;;;;5061292;28;20052;-77
2021/04/06 06:41:19;;;;;;;14.43;2.60;;;4.10;82.80;;;;;;5052276;28;20374;-78
2021/04/06 06:43:56;;;;;;;14.30;3.60;;;4.20;81.20;;;;;;5061610;28;20428;-78
2021/04/06 06:46:29;;;;;;;14.02;3.15;;;4.20;83.20;;;;;;5073385;28;20035;-77
2021/04/06 06:49:02;;;;;;;13.43;2.60;;;4.20;79.90;;;;;;5072555;28;20054;-77
2021/04/06 06:51:36;;;;;;;8.02;2.25;;;4.30;81.60;;;;;;5073778;28;20017;-78
2021/04/06 06:54:02;;;;;;;17.23;2.55;;;4.40;80.50;;;;;;5072462;28;20394;-78
2021/04/06 06:56:36;;;;;;;14.43;3.05;;;4.50;78.00;;;;;;5073900;28;20074;-78
2021/04/06 06:59:03;;;;;;;14.02;2.67;;;4.60;79.30;;;;;;5071774;28;20052;-78
2021/04/06 07:01:30;;;;;;;16.38;2.67;;;4.50;76.60;;;;;;5071758;28;20070;-79
2021/04/06 07:04:10;;;;;;;16.65;2.67;;;4.40;78.30;;;;;;5072961;28;20464;-78
2021/04/06 07:06:41;;;;;;;19.67;3.75;;;4.30;79.10;;;;;;5071672;28;20135;-80
2021/04/06 07:09:24;;;;;;;17.63;3.17;;;4.40;79.90;;;;;;5071489;28;20112;-79
2021/04/06 07:11:56;;;;;;;11.52;3.03;;;4.60;78.70;;;;;;5073144;28;20025;-80
2021/04/06 07:14:25;;;;;;;16.10;3.22;;;4.60;78.60;;;;;;5071111;28;20031;-80
2021/04/06 07:16:55;;;;;;;11.75;2.30;;;4.50;77.80;;;;;;5073059;28;20024;-79
2021/04/06 07:19:21;;;;;;;11.50;2.47;;;4.40;78.00;;;;;;5071167;28;20020;-80
2021/04/06 07:21:52;;;;;;;7.78;1.90;;;4.20;78.90;;;;;;5071381;28;20017;-80
2021/04/06 07:24:25;;;;;;;8.15;1.90;;;4.20;82.30;;;;;;5074329;28;20017;-78
2021/04/06 07:26:51;;;;;;;12.23;2.53;;;4.40;88.30;;;;;;5064358;28;20095;-81
2021/04/06 07:29:19;;;;;;;8.85;2.05;;;4.50;81.60;;;;;;5051442;28;20048;-81
2021/04/06 07:31:45;;;;;;;10.93;2.53;;;4.60;79.00;;;;;;5051612;28;20021;-82
2021/04/06 07:34:12;;;;;;;11.38;2.33;;;4.60;77.70;;;;;;5051425;28;20463;-81
2021/04/06 07:36:38;;;;;;;8.20;1.80;;;4.70;78.10;;;;;;5051569;28;20091;-80
2021/04/06 07:39:10;;;;;;;12.00;2.08;;;4.90;77.50;;;;;;5051303;28;20029;-81
2021/04/06 07:41:46;;;;;;;11.40;2.30;;;5.10;76.90;;;;;;5051229;28;20044;-81
2021/04/06 07:44:14;;;;;;;11.60;2.72;;;5.40;77.50;;;;;;5051759;28;20338;-81
2021/04/06 07:46:39;;;;;;;7.63;2.00;;;5.80;76.30;;;;;;5051743;28;20353;-79
2021/04/06 07:49:17;;;;;;;10.25;2.13;;;5.90;74.30;;;;;;5051456;28;20021;-80
2021/04/06 07:51:45;;;;;;;13.20;3.05;;;6.00;73.70;;;;;;5051660;28;20064;-82
2021/04/06 07:54:33;;;;;;;12.75;4.40;;;6.10;73.40;;;;;;5052460;28;20039;-82
2021/04/06 07:56:58;;;;;;;9.02;1.90;;;6.20;73.60;;;;;;5059938;28;20465;-80
2021/04/06 07:59:24;;;;;;;9.32;1.90;;;6.30;75.20;;;;;;5055267;28;20028;-80
2021/04/06 08:01:56;;;;;;;9.25;1.92;;;6.20;70.00;;;;;;5055420;28;20025;-79
2021/04/06 08:04:26;;;;;;;10.23;1.55;;;6.00;71.70;;;;;;5052464;28;20051;-81
2021/04/06 08:06:54;;;;;;;3.90;1.25;;;5.80;71.70;;;;;;5052018;28;20044;-81
2021/04/06 08:09:30;;;;;;;12.88;1.67;;;5.80;73.50;;;;;;5052379;28;20093;-81
2021/04/06 08:12:18;;;;;;;10.82;1.77;;;6.00;71.20;;;;;;5052850;28;20334;-81
2021/04/06 08:14:53;;;;;;;8.57;1.65;;;6.20;72.00;;;;;;5052319;28;20020;-81
2021/04/06 08:19:53;;;;;;;8.23;2.08;;;6.50;67.90;;;;;;5053996;28;20028;-81
2021/04/06 08:22:27;;;;;;;6.28;1.20;;;6.50;65.90;;;;;;5051551;28;20013;-81
2021/04/06 08:25:13;;;;;;;8.40;1.60;;;6.70;65.90;;;;;;5052312;28;20028;-82
2021/04/06 08:27:39;;;;;;;4.90;1.20;;;6.70;67.30;;;;;;5051870;28;20365;-80
2021/04/06 08:30:21;;;;;;;7.55;1.45;;;6.80;67.60;;;;;;5051778;28;20020;-81
2021/04/06 08:32:56;;;;;;;7.55;1.90;;;6.70;70.10;;;;;;5052257;28;20416;-82
2021/04/06 08:35:48;;;;;;;4.32;1.52;;;6.70;72.60;;;;;;5052587;28;20029;-80
2021/04/06 08:38:20;;;;;;;8.00;1.33;;;6.50;67.50;;;;;;5051133;28;20079;-81
2021/04/06 08:40:51;;;;;;;9.90;1.88;;;6.30;67.20;;;;;;5051230;28;20108;-80
2021/04/06 08:43:23;;;;;;;6.57;1.30;;;6.40;67.80;;;;;;5051173;28;20104;-81
2021/04/06 08:45:55;;;;;;;6.28;1.60;;;6.50;70.00;;;;;;5052440;28;20045;-82
2021/04/06 08:48:43;;;;;;;8.05;1.30;;;6.70;66.10;;;;;;5051233;28;20087;-81
2021/04/06 08:51:25;;;;;;;4.47;1.23;;;6.80;67.50;;;;;;5051575;28;20087;-81
2021/04/06 08:54:04;;;;;;;5.88;1.48;;;7.00;66.80;;;;;;5052051;28;20025;-81
2021/04/06 08:56:34;;;;;;;4.38;1.30;;;7.20;65.80;;;;;;5051206;28;20012;-82
2021/04/06 08:59:25;;;;;;;8.52;1.50;;;7.50;65.20;;;;;;5053042;28;20311;-80
2021/04/06 09:02:10;;;;;;;5.22;1.10;;;7.70;63.10;;;;;;5051117;28;20465;-81
2021/04/06 09:04:47;;;;;;;5.13;1.13;;;7.50;64.50;;;;;;5051311;28;20039;-82
2021/04/06 09:07:24;;;;;;;6.13;1.20;;;7.10;63.50;;;;;;5050721;28;20053;-81
2021/04/06 09:09:57;;;;;;;9.02;1.70;;;7.00;66.40;;;;;;5051779;28;20377;-82
2021/04/06 09:12:24;;;;;;;5.72;1.17;;;6.80;66.00;;;;;;5051308;28;20028;-82
2021/04/06 09:14:50;;;;;;;3.90;1.42;;;6.90;67.20;;;;;;5053209;28;20017;-81
2021/04/06 09:17:15;;;;;;;3.25;1.13;;;7.20;70.90;;;;;;5050621;28;20025;-80
2021/04/06 09:19:41;;;;;;;5.70;1.40;;;7.50;63.40;;;;;;5051371;28;20013;-80
2021/04/06 09:22:14;;;;;;;6.07;1.00;;;7.70;62.00;;;;;;5060405;28;20024;-81
2021/04/06 09:24:41;;;;;;;8.57;1.27;;;7.80;61.80;;;;;;5058304;28;20446;-82
2021/04/06 09:27:07;;;;;;;6.80;1.40;;;8.10;63.30;;;;;;5051434;28;20119;-81
2021/04/06 09:29:39;;;;;;;12.48;3.13;;;8.30;60.20;;;;;;5052885;28;20068;-81
2021/04/06 09:32:09;;;;;;;7.55;1.67;;;8.40;61.90;;;;;;5054592;28;20028;-81
2021/04/06 09:34:37;;;;;;;51.60;5.65;;;8.70;63.60;;;;;;5054724;28;20059;-80
2021/04/06 09:37:08;;;;;;;12.98;2.28;;;9.10;59.00;;;;;;5054410;28;20025;-81
2021/04/06 09:39:34;;;;;;;78.70;8.13;;;9.20;59.30;;;;;;5054636;28;20024;-80
2021/04/06 09:42:01;;;;;;;14.45;1.52;;;9.20;62.70;;;;;;5054575;28;20017;-81
2021/04/06 09:44:29;;;;;;;9.55;1.25;;;8.90;61.20;;;;;;5054318;28;20029;-83
2021/04/06 09:47:33;;;;;;;;;;;;;;;;;;;;;
2021/04/06 09:50:32;;;;;;;;;;;;;;;;;;;;;
2021/04/06 09:56:09;;;;;;;6.38;1.10;;;7.10;68.20;;;;;;5056187;28;20035;-85
2021/04/06 10:05:28;;;;;;;;;;;;;;;;;;;;;
2021/04/06 10:08:07;;;;;;;5.03;1.20;;;8.30;58.70;;;;;;5055700;28;20053;-82
2021/04/06 10:10:57;;;;;;;;;;;;;;;;;;;;;
2021/04/06 10:13:55;;;;;;;;;;;;;;;;;;;;;
2021/04/06 10:20:20;;;;;;;7.30;1.70;;;9.10;60.50;;;;;;5062602;28;20520;-81
2021/04/06 10:22:49;;;;;;;4.45;1.10;;;9.70;58.60;;;;;;5053870;28;20013;-80
2021/04/06 10:25:35;;;;;;;9.55;1.58;;;10.10;57.90;;;;;;5072823;28;20020;-79
2021/04/06 10:28:36;;;;;;;7.15;1.80;;;10.40;55.40;;;;;;5072994;28;20069;-80
2021/04/06 10:31:04;;;;;;;5.72;1.30;;;10.40;53.80;;;;;;5071528;28;20393;-81
2021/04/06 10:33:34;;;;;;;10.45;1.67;;;10.10;51.90;;;;;;5073827;28;20020;-82
2021/04/06 10:36:04;;;;;;;7.63;1.85;;;9.80;53.70;;;;;;5073287;28;20021;-79
2021/04/06 10:38:40;;;;;;;9.95;1.52;;;9.90;55.10;;;;;;5072672;28;20036;-81
2021/04/06 10:41:24;;;;;;;7.03;1.75;;;9.90;56.10;;;;;;5073061;28;20016;-79
2021/04/06 10:43:51;;;;;;;6.05;1.60;;;10.10;56.50;;;;;;5072365;28;20032;-80
2021/04/06 10:46:22;;;;;;;6.65;1.33;;;10.30;53.90;;;;;;5072111;28;20526;-80
2021/04/06 10:48:51;;;;;;;7.47;1.65;;;10.10;53.80;;;;;;5072513;28;20384;-80
2021/04/06 10:51:22;;;;;;;8.07;1.55;;;9.70;59.20;;;;;;5073456;28;20020;-80
2021/04/06 10:53:59;;;;;;;11.88;2.13;;;9.10;63.10;;;;;;5072365;28;20040;-79
2021/04/06 10:56:38;;;;;;;10.98;2.00;;;8.50;66.70;;;;;;5072444;28;20016;-82
2021/04/06 10:59:09;;;;;;;10.88;1.80;;;8.00;63.30;;;;;;5072212;28;20461;-81
2021/04/06 11:01:43;;;;;;;21.50;2.08;;;7.50;68.50;;;;;;5072435;28;20016;-81
2021/04/06 11:04:29;;;;;;;6.22;1.55;;;7.20;68.30;;;;;;5073692;28;20013;-81
2021/04/06 11:07:04;;;;;;;35.83;3.97;;;6.90;67.40;;;;;;5072512;28;20036;-81
2021/04/06 11:09:35;;;;;;;9.73;1.90;;;6.90;68.20;;;;;;5073976;28;20025;-81
2021/04/06 11:12:02;;;;;;;6.18;1.60;;;7.20;66.60;;;;;;5072663;28;20360;-81
2021/04/06 11:14:30;;;;;;;17.80;1.83;;;7.70;68.70;;;;;;5072802;28;20020;-81
2021/04/06 11:16:57;;;;;;;5.20;1.00;;;8.20;61.60;;;;;;5072661;28;20021;-81
2021/04/06 11:19:31;;;;;;;6.30;1.15;;;8.50;60.50;;;;;;5075612;28;20441;-81
2021/04/06 11:22:01;;;;;;;9.52;1.52;;;8.90;60.50;;;;;;5082370;28;20027;-82
2021/04/06 11:24:31;;;;;;;14.60;2.20;;;9.30;61.20;;;;;;5072294;28;20453;-81
2021/04/06 11:26:58;;;;;;;6.63;1.65;;;9.50;56.10;;;;;;5072118;28;20016;-82
2021/04/06 11:29:26;;;;;;;8.43;2.67;;;9.80;57.30;;;;;;5072068;28;20059;-81
2021/04/06 11:31:55;;;;;;;5.88;1.40;;;10.10;57.20;;;;;;5071783;28;20025;-82
2021/04/06 11:34:22;;;;;;;5.82;1.10;;;10.40;58.90;;;;;;5071885;28;20012;-81
2021/04/06 11:36:48;;;;;;;5.97;1.38;;;10.80;54.80;;;;;;5073694;28;20411;-81
2021/04/06 11:39:16;;;;;;;2.63;0.93;;;11.00;52.10;;;;;;5071602;28;20107;-80
2021/04/06 11:41:44;;;;;;;3.92;1.38;;;10.80;57.90;;;;;;5071721;28;20047;-81
2021/04/06 11:44:11;;;;;;;4.72;0.93;;;10.50;55.70;;;;;;5071601;28;20016;-81
2021/04/06 11:46:38;;;;;;;2.90;0.63;;;9.80;56.30;;;;;;5071777;28;20021;-82
2021/04/06 11:49:06;;;;;;;11.73;1.20;;;8.90;62.40;;;;;;5071596;28;20020;-81
2021/04/06 11:51:31;;;;;;;1.65;0.55;;;8.20;61.90;;;;;;5071038;28;20017;-81
2021/04/06 11:53:57;;;;;;;2.53;0.50;;;7.70;60.90;;;;;;5071717;28;20513;-81
2021/04/06 11:56:22;;;;;;;2.28;0.40;;;7.20;62.90;;;;;;5071396;28;20449;-81
2021/04/06 11:58:48;;;;;;;2.13;0.60;;;6.90;63.70;;;;;;5071343;28;20137;-81
2021/04/06 12:01:14;;;;;;;4.10;0.77;;;6.70;67.40;;;;;;5071653;28;20098;-81
2021/04/06 12:03:39;;;;;;;10.23;2.28;;;6.50;63.20;;;;;;5072002;28;20035;-81
2021/04/06 12:06:05;;;;;;;18.83;2.40;;;6.40;65.70;;;;;;5071658;28;20042;-81
2021/04/06 12:08:31;;;;;;;4.68;0.52;;;6.50;65.40;;;;;;5071724;28;20021;-82
2021/04/06 12:10:57;;;;;;;3.15;0.75;;;6.70;62.10;;;;;;5072040;28;20116;-81
2021/04/06 12:13:22;;;;;;;6.57;1.05;;;6.90;61.30;;;;;;5071695;28;20021;-82
2021/04/06 12:15:48;;;;;;;4.10;0.82;;;7.20;64.40;;;;;;5071851;28;20461;-81
2021/04/06 12:18:14;;;;;;;7.82;1.35;;;7.80;61.10;;;;;;5071760;28;20197;-82
2021/04/06 12:20:41;;;;;;;5.47;1.00;;;8.20;58.80;;;;;;5072164;28;20020;-82
2021/04/06 12:23:07;;;;;;;10.40;1.02;;;8.30;61.00;;;;;;5071774;28;20017;-82
2021/04/06 12:25:32;;;;;;;6.68;1.02;;;8.50;58.20;;;;;;5072298;28;20023;-82
2021/04/06 12:27:58;;;;;;;8.52;2.55;;;8.70;58.60;;;;;;5071590;28;20058;-83
2021/04/06 12:30:24;;;;;;;16.17;2.45;;;9.20;60.30;;;;;;5071609;28;20020;-82
2021/04/06 12:32:50;;;;;;;13.65;2.13;;;9.60;61.80;;;;;;5071453;28;20020;-81
2021/04/06 12:35:15;;;;;;;6.25;1.45;;;10.00;58.90;;;;;;5071352;28;20013;-82
2021/04/06 12:37:41;;;;;;;6.18;1.58;;;10.30;55.20;;;;;;5071683;28;20032;-82
2021/04/06 12:40:07;;;;;;;12.75;1.70;;;10.40;54.50;;;;;;5071750;28;20021;-81
2021/04/06 12:42:37;;;;;;;24.52;2.63;;;10.40;53.60;;;;;;5072247;28;20017;-81
2021/04/06 12:45:06;;;;;;;20.00;2.57;;;10.30;56.60;;;;;;5073507;28;20043;-81
2021/04/06 12:47:31;;;;;;;7.88;1.83;;;10.50;60.40;;;;;;5071172;28;20021;-81
2021/04/06 12:49:57;;;;;;;13.63;7.22;;;10.80;56.40;;;;;;5072010;28;20042;-82
2021/04/06 12:52:23;;;;;;;15.68;4.18;;;10.80;52.00;;;;;;5071977;28;20013;-81
2021/04/06 12:54:48;;;;;;;11.70;1.95;;;10.30;57.40;;;;;;5071557;28;20058;-83
2021/04/06 12:57:14;;;;;;;8.98;3.28;;;9.60;63.70;;;;;;5070621;28;20104;-80
2021/04/06 12:59:40;;;;;;;10.13;1.73;;;8.80;57.70;;;;;;5071485;28;20289;-81
2021/04/06 13:02:06;;;;;;;35.35;4.47;;;8.10;58.30;;;;;;5071811;28;20119;-81
2021/04/06 13:04:31;;;;;;;5.05;1.15;;;7.70;60.60;;;;;;5074540;28;20019;-81
2021/04/06 13:06:57;;;;;;;8.57;1.10;;;7.30;60.60;;;;;;5075896;28;20041;-81
2021/04/06 13:09:22;;;;;;;6.32;1.08;;;7.00;60.70;;;;;;5074826;28;20047;-81
2021/04/06 13:11:48;;;;;;;5.60;0.70;;;6.80;62.40;;;;;;5075464;28;20487;-81
2021/04/06 13:14:15;;;;;;;4.20;1.23;;;6.80;61.50;;;;;;5074595;28;20012;-81
2021/04/06 13:16:40;;;;;;;16.13;2.13;;;6.70;61.60;;;;;;5074962;28;20356;-80
2021/04/06 13:19:06;;;;;;;8.73;1.30;;;6.70;61.40;;;;;;5086860;28;20067;-78
2021/04/06 13:21:32;;;;;;;53.55;7.53;;;6.70;60.10;;;;;;5078786;28;20024;-82
2021/04/06 13:23:59;;;;;;;12.30;2.30;;;6.60;58.80;;;;;;5065463;28;20413;-81
2021/04/06 13:26:25;;;;;;;7.82;1.45;;;6.50;59.90;;;;;;5054515;28;20346;-81
2021/04/06 13:28:51;;;;;;;15.27;1.98;;;6.50;60.90;;;;;;5054509;28;20032;-82